Time;durP1;ratioP1;P1;durP2;ratioP2;P2;SDS_P1;SDS_P2;PMS_P1;PMS_P2;Temp;Humidity;BMP_temperature;BMP_pressure;BME280_temperature;BME280_humidity;BME280_pressure;Samples;Min_cycle;Max_cycle;Signal;HPM_P1;HPM_P2
2021/03/06 00:00:26;;;;;;;7.90;1.48;;;-0.20;84.60;;;;;;4969725;28;20060;-94
2021/03/06 00:02:52;;;;;;;7.45;1.27;;;-0.20;84.60;;;;;;4976840;28;20043;-96
2021/03/06 00:05:19;;;;;;;7.80;2.58;;;-0.30;84.60;;;;;;4984795;28;20050;-96
2021/03/06 00:07:45;;;;;;;14.68;2.58;;;-0.30;84.70;;;;;;4989481;28;20035;-96
2021/03/06 00:10:13;;;;;;;8.32;1.67;;;-0.40;84.80;;;;;;4993193;28;20149;-96
2021/03/06 00:12:40;;;;;;;9.18;1.55;;;-0.40;85.00;;;;;;4994069;28;20092;-94
2021/03/06 00:15:07;;;;;;;6.50;1.52;;;-0.50;85.10;;;;;;4991034;28;20023;-95
2021/03/06 00:17:33;;;;;;;7.25;1.65;;;-0.50;85.30;;;;;;4997298;28;20037;-96
2021/03/06 00:19:59;;;;;;;5.07;1.40;;;-0.60;85.30;;;;;;5012843;28;20026;-96
2021/03/06 00:22:25;;;;;;;9.13;1.35;;;-0.70;85.50;;;;;;4992243;28;20037;-95
2021/03/06 00:24:50;;;;;;;6.43;1.50;;;-0.70;85.70;;;;;;4996561;28;20474;-94
2021/03/06 00:27:16;;;;;;;8.27;1.60;;;-0.70;85.90;;;;;;4989802;28;20483;-94
2021/03/06 00:29:41;;;;;;;8.15;1.65;;;-0.80;86.10;;;;;;4996128;28;20030;-94
2021/03/06 00:32:07;;;;;;;9.57;1.88;;;-0.80;86.10;;;;;;4992286;28;20022;-94
2021/03/06 00:34:32;;;;;;;10.45;2.33;;;-0.80;86.20;;;;;;4994710;28;20027;-95
2021/03/06 00:36:58;;;;;;;7.72;1.33;;;-0.80;86.30;;;;;;4995566;28;20030;-92
2021/03/06 00:39:24;;;;;;;6.28;1.42;;;-0.80;86.30;;;;;;4995585;28;20057;-93
2021/03/06 00:41:49;;;;;;;7.45;1.13;;;-0.80;86.40;;;;;;4994471;28;20034;-94
2021/03/06 00:44:15;;;;;;;6.03;1.00;;;-0.80;86.30;;;;;;4995563;28;20027;-95
2021/03/06 00:46:40;;;;;;;6.35;1.27;;;-0.80;86.30;;;;;;4986727;28;20022;-92
2021/03/06 00:49:06;;;;;;;6.97;1.13;;;-0.80;86.40;;;;;;4994585;28;20026;-93
2021/03/06 00:51:32;;;;;;;6.53;1.73;;;-0.80;86.50;;;;;;4995730;28;20113;-92
2021/03/06 00:53:57;;;;;;;4.07;1.23;;;-0.80;86.60;;;;;;4995057;28;20038;-94
2021/03/06 00:56:23;;;;;;;5.43;1.67;;;-0.90;86.60;;;;;;4995298;28;20073;-94
2021/03/06 00:58:49;;;;;;;7.93;1.98;;;-0.80;86.70;;;;;;4994068;28;20035;-94
2021/03/06 01:01:14;;;;;;;5.28;1.60;;;-0.80;86.80;;;;;;4994522;28;20453;-93
2021/03/06 01:03:40;;;;;;;5.45;1.48;;;-0.90;86.70;;;;;;4993370;28;20026;-94
2021/03/06 01:06:06;;;;;;;3.17;1.15;;;-0.90;86.70;;;;;;4979933;28;20022;-91
2021/03/06 01:08:33;;;;;;;4.70;1.48;;;-1.00;86.70;;;;;;4975799;28;20379;-93
2021/03/06 01:10:59;;;;;;;6.28;1.27;;;-1.10;87.10;;;;;;4977082;28;20030;-94
2021/03/06 01:13:26;;;;;;;4.55;1.42;;;-1.10;87.30;;;;;;4978185;28;20779;-95
2021/03/06 01:15:52;;;;;;;7.32;1.45;;;-1.20;87.30;;;;;;4977965;28;20023;-93
2021/03/06 01:18:18;;;;;;;4.43;1.13;;;-1.20;87.40;;;;;;4978918;28;20033;-92
2021/03/06 01:20:44;;;;;;;7.38;1.42;;;-1.20;87.60;;;;;;4975745;28;20029;-93
2021/03/06 01:23:10;;;;;;;4.97;1.38;;;-1.30;87.70;;;;;;4973864;28;20518;-95
2021/03/06 01:25:35;;;;;;;12.02;1.83;;;-1.30;87.90;;;;;;4978018;28;20037;-93
2021/03/06 01:28:01;;;;;;;7.63;1.55;;;-1.30;88.00;;;;;;4978132;28;20033;-93
2021/03/06 01:30:27;;;;;;;13.35;2.10;;;-1.30;88.10;;;;;;4977252;28;20026;-93
2021/03/06 01:32:52;;;;;;;9.90;1.90;;;-1.30;88.20;;;;;;4977433;28;20023;-94
2021/03/06 01:35:21;;;;;;;11.30;1.50;;;-1.30;88.40;;;;;;4979028;28;20031;-94
2021/03/06 01:37:47;;;;;;;6.18;1.23;;;-1.30;88.30;;;;;;4973730;28;20521;-95
2021/03/06 01:40:15;;;;;;;6.38;1.48;;;-1.30;88.40;;;;;;4974544;28;20030;-92
2021/03/06 01:42:40;;;;;;;8.15;1.63;;;-1.30;88.50;;;;;;4970274;28;20042;-93
2021/03/06 01:45:08;;;;;;;8.98;1.60;;;-1.30;88.60;;;;;;4967375;28;20042;-91
2021/03/06 01:47:34;;;;;;;9.68;1.77;;;-1.30;88.70;;;;;;4975493;28;20026;-93
2021/03/06 01:49:59;;;;;;;6.45;1.38;;;-1.30;88.70;;;;;;4978021;28;20033;-93
2021/03/06 01:52:25;;;;;;;4.35;1.67;;;-1.40;88.70;;;;;;4975365;28;20030;-94
2021/03/06 01:54:52;;;;;;;4.82;1.13;;;-1.30;88.80;;;;;;4977565;28;20386;-93
2021/03/06 01:57:17;;;;;;;6.03;2.70;;;-1.30;88.80;;;;;;4977899;28;20081;-93
2021/03/06 01:59:43;;;;;;;6.28;1.88;;;-1.30;89.20;;;;;;4975259;28;20055;-94
2021/03/06 02:02:08;;;;;;;7.53;1.70;;;-1.30;89.20;;;;;;4977317;28;20641;-93
2021/03/06 02:04:34;;;;;;;4.78;1.77;;;-1.30;89.10;;;;;;4981230;28;20039;-94
2021/03/06 02:07:03;;;;;;;9.68;3.22;;;-1.30;89.00;;;;;;4993276;28;20030;-93
2021/03/06 02:09:29;;;;;;;8.02;1.52;;;-1.30;89.20;;;;;;4991416;28;20034;-93
2021/03/06 02:12:05;;;;;;;5.97;1.20;;;-1.30;89.40;;;;;;4990578;28;20121;-95
2021/03/06 02:14:53;;;;;;;6.00;2.13;;;-1.30;89.30;;;;;;4987399;28;20033;-94
2021/03/06 02:17:31;;;;;;;8.10;1.98;;;-1.40;89.10;;;;;;4992446;28;20022;-95
2021/03/06 02:20:30;;;;;;;3.85;1.65;;;-1.40;89.40;;;;;;4986675;28;20030;-94
2021/03/06 02:23:34;;;;;;;6.88;1.67;;;-1.50;89.30;;;;;;4992487;28;20030;-95
2021/03/06 02:26:18;;;;;;;6.20;1.40;;;-1.60;89.50;;;;;;4935974;28;20126;-94
2021/03/06 02:29:21;;;;;;;6.80;1.30;;;-1.50;89.60;;;;;;4992929;28;20030;-94
2021/03/06 02:31:48;;;;;;;5.50;1.90;;;-1.60;89.70;;;;;;4989834;28;21821;-94
2021/03/06 02:34:21;;;;;;;4.45;1.80;;;-1.60;89.90;;;;;;4991783;28;20069;-95
2021/03/06 02:36:52;;;;;;;5.60;1.40;;;-1.60;90.00;;;;;;4989319;28;20022;-95
2021/03/06 02:39:21;;;;;;;6.30;1.52;;;-1.60;90.00;;;;;;5009694;28;20479;-95
2021/03/06 02:41:49;;;;;;;5.32;1.38;;;-1.60;90.10;;;;;;4992391;28;20038;-94
2021/03/06 02:44:18;;;;;;;10.13;1.98;;;-1.60;90.10;;;;;;4987497;28;20026;-96
2021/03/06 02:46:45;;;;;;;5.72;1.50;;;-1.60;90.10;;;;;;4988319;28;20029;-95
2021/03/06 02:49:11;;;;;;;8.30;1.65;;;-1.70;90.10;;;;;;4981836;28;20035;-95
2021/03/06 02:51:41;;;;;;;6.18;2.05;;;-1.70;90.20;;;;;;4990124;28;20106;-94
2021/03/06 02:54:08;;;;;;;7.88;1.90;;;-1.70;90.30;;;;;;4993594;28;20061;-95
2021/03/06 02:56:35;;;;;;;10.20;1.30;;;-1.70;90.30;;;;;;4993132;28;20034;-94
2021/03/06 02:59:28;;;;;;;4.55;1.20;;;-1.70;90.30;;;;;;4986272;28;20034;-94
2021/03/06 03:02:17;;;;;;;;;;;-1.60;90.30;;;;;;4984476;28;20045;-94
2021/03/06 03:05:19;;;;;;;4.88;1.10;;;-1.60;90.30;;;;;;4992058;28;19964;-94
2021/03/06 03:07:54;;;;;;;6.55;1.02;;;-1.70;90.30;;;;;;4989605;28;20031;-94
2021/03/06 03:10:22;;;;;;;4.18;1.20;;;-1.70;90.60;;;;;;4988034;28;20026;-94
2021/03/06 03:12:55;;;;;;;7.80;1.73;;;-1.70;90.30;;;;;;4990977;28;20061;-94
2021/03/06 03:15:42;;;;;;;7.75;1.50;;;-1.70;90.40;;;;;;4996558;28;20042;-94
2021/03/06 03:18:17;;;;;;;7.75;2.03;;;-1.70;90.40;;;;;;4981294;28;20041;-94
2021/03/06 03:20:58;;;;;;;6.50;2.10;;;-1.70;90.50;;;;;;4993237;28;20030;-93
2021/03/06 03:23:38;;;;;;;6.90;1.67;;;-1.70;90.50;;;;;;4990199;28;20156;-94
2021/03/06 03:26:11;;;;;;;6.95;1.33;;;-1.70;90.50;;;;;;4992130;28;20517;-93
2021/03/06 03:28:40;;;;;;;5.38;1.73;;;-1.70;90.50;;;;;;4989246;28;20105;-95
2021/03/06 03:31:06;;;;;;;5.82;1.92;;;-1.80;90.50;;;;;;4986687;28;20158;-95
2021/03/06 03:33:34;;;;;;;6.13;1.48;;;-1.80;90.40;;;;;;4990765;28;20065;-94
2021/03/06 03:36:04;;;;;;;5.47;1.23;;;-1.90;90.50;;;;;;4992270;28;20022;-93
2021/03/06 03:38:31;;;;;;;8.07;1.20;;;-1.90;90.60;;;;;;4993047;28;20115;-95
2021/03/06 03:40:59;;;;;;;7.55;2.47;;;-2.00;90.60;;;;;;4991421;28;20117;-95
2021/03/06 03:43:25;;;;;;;8.73;2.28;;;-2.00;90.70;;;;;;4990670;28;20027;-94
2021/03/06 03:45:54;;;;;;;8.77;1.95;;;-2.00;90.70;;;;;;4992688;28;20113;-94
2021/03/06 03:48:21;;;;;;;6.70;1.70;;;-2.00;90.80;;;;;;4991322;28;20080;-94
2021/03/06 03:50:48;;;;;;;3.15;1.70;;;-2.00;90.80;;;;;;4989468;28;20061;-94
2021/03/06 03:53:14;;;;;;;7.38;2.03;;;-2.00;90.80;;;;;;4988786;28;20511;-93
2021/03/06 03:55:40;;;;;;;6.35;2.08;;;-2.00;90.70;;;;;;4991003;28;20038;-94
2021/03/06 03:58:11;;;;;;;6.38;1.98;;;-2.00;90.70;;;;;;4995696;28;20050;-95
2021/03/06 04:00:37;;;;;;;5.45;3.30;;;-2.10;90.70;;;;;;4995700;28;20030;-94
2021/03/06 04:03:07;;;;;;;10.15;2.17;;;-2.20;90.70;;;;;;4995710;28;20030;-95
2021/03/06 04:05:33;;;;;;;8.60;2.13;;;-2.30;90.70;;;;;;4986056;28;20116;-95
2021/03/06 04:07:59;;;;;;;9.70;2.33;;;-2.40;90.80;;;;;;4977859;28;20026;-94
2021/03/06 04:10:26;;;;;;;3.95;1.80;;;-2.40;90.90;;;;;;4981851;28;20053;-94
2021/03/06 04:12:53;;;;;;;8.38;2.35;;;-2.50;91.00;;;;;;4971068;28;20026;-94
2021/03/06 04:15:21;;;;;;;8.82;2.45;;;-2.50;91.10;;;;;;4992394;28;20520;-93
2021/03/06 04:17:48;;;;;;;8.68;2.50;;;-2.60;91.10;;;;;;4992761;28;20066;-94
2021/03/06 04:20:22;;;;;;;5.10;2.22;;;-2.60;91.10;;;;;;4976520;28;20121;-95
2021/03/06 04:22:48;;;;;;;6.97;2.53;;;-2.70;91.10;;;;;;4977467;28;20066;-94
2021/03/06 04:25:14;;;;;;;12.18;2.78;;;-2.70;91.20;;;;;;4978178;28;20117;-94
2021/03/06 04:27:40;;;;;;;6.95;1.98;;;-2.70;91.20;;;;;;4976420;28;20042;-94
2021/03/06 04:30:08;;;;;;;13.05;2.60;;;-2.80;91.20;;;;;;4978568;28;20030;-94
2021/03/06 04:32:34;;;;;;;5.45;2.75;;;-2.80;91.20;;;;;;4980099;28;20023;-94
2021/03/06 04:34:59;;;;;;;8.48;2.50;;;-2.80;91.30;;;;;;4981454;28;20124;-95
2021/03/06 04:37:25;;;;;;;4.95;2.05;;;-2.80;91.40;;;;;;4979129;28;20025;-94
2021/03/06 04:39:51;;;;;;;8.27;2.45;;;-2.80;91.40;;;;;;4979366;28;20030;-95
2021/03/06 04:42:17;;;;;;;5.80;2.55;;;-2.80;91.40;;;;;;4972499;28;20042;-94
2021/03/06 04:44:42;;;;;;;8.10;2.30;;;-2.90;91.40;;;;;;4974955;28;20023;-96
2021/03/06 04:47:08;;;;;;;7.57;2.58;;;-2.90;91.50;;;;;;4997941;28;20026;-94
2021/03/06 04:49:33;;;;;;;9.23;2.65;;;-2.90;91.50;;;;;;4980041;28;20044;-95
2021/03/06 04:51:59;;;;;;;12.98;3.33;;;-2.90;91.60;;;;;;4977898;28;20033;-95
2021/03/06 04:54:25;;;;;;;7.10;2.65;;;-2.90;91.60;;;;;;4978594;28;20026;-94
2021/03/06 04:56:51;;;;;;;10.13;2.97;;;-2.90;91.60;;;;;;4973331;28;20494;-95
2021/03/06 04:59:17;;;;;;;7.78;2.33;;;-2.90;91.60;;;;;;4978770;28;20050;-96
2021/03/06 05:01:43;;;;;;;11.50;2.45;;;-2.90;91.60;;;;;;4978338;28;20196;-94
2021/03/06 05:04:09;;;;;;;10.75;2.22;;;-2.90;91.60;;;;;;4978276;28;20026;-95
2021/03/06 05:06:34;;;;;;;7.40;2.00;;;-2.90;91.60;;;;;;4977822;28;20035;-96
2021/03/06 05:09:00;;;;;;;5.80;1.92;;;-2.90;91.60;;;;;;4968703;28;20062;-96
2021/03/06 05:11:25;;;;;;;9.25;2.33;;;-3.00;91.70;;;;;;4977910;28;20069;-95
2021/03/06 05:13:51;;;;;;;7.43;1.88;;;-3.10;91.70;;;;;;4978077;28;20034;-94
2021/03/06 05:16:16;;;;;;;14.75;2.03;;;-3.00;91.80;;;;;;4976218;28;20079;-95
2021/03/06 05:18:42;;;;;;;7.72;1.80;;;-3.00;91.80;;;;;;4976108;28;20029;-94
2021/03/06 05:21:08;;;;;;;10.10;2.38;;;-3.00;91.80;;;;;;4976294;28;20109;-94
2021/03/06 05:23:34;;;;;;;7.38;1.60;;;-3.10;91.80;;;;;;4979296;28;20141;-94
2021/03/06 05:25:59;;;;;;;13.18;2.63;;;-3.10;91.80;;;;;;4984463;28;20415;-95
2021/03/06 05:28:25;;;;;;;9.77;2.20;;;-3.10;91.80;;;;;;4979117;28;20053;-94
2021/03/06 05:30:51;;;;;;;7.63;2.35;;;-3.10;91.80;;;;;;4978361;28;20023;-95
2021/03/06 05:33:17;;;;;;;8.00;2.70;;;-3.10;91.80;;;;;;4978560;28;20085;-94
2021/03/06 05:35:43;;;;;;;6.82;2.15;;;-3.20;91.80;;;;;;4975157;28;20533;-95
2021/03/06 05:38:09;;;;;;;8.50;2.28;;;-3.20;91.80;;;;;;4977929;28;20122;-95
2021/03/06 05:40:39;;;;;;;8.70;2.75;;;-3.20;91.80;;;;;;4975907;28;20041;-94
2021/03/06 05:43:05;;;;;;;9.55;2.78;;;-3.20;91.90;;;;;;4978589;28;20038;-94
2021/03/06 05:45:31;;;;;;;9.25;2.28;;;-3.30;91.90;;;;;;4980628;28;20127;-95
2021/03/06 05:47:57;;;;;;;13.95;2.65;;;-3.30;91.90;;;;;;4983569;28;20081;-94
2021/03/06 05:50:24;;;;;;;8.75;2.60;;;-3.40;91.90;;;;;;4989638;28;20025;-95
2021/03/06 05:52:51;;;;;;;11.88;3.60;;;-3.40;92.00;;;;;;4986226;28;20030;-94
2021/03/06 05:55:18;;;;;;;6.63;2.47;;;-3.40;92.10;;;;;;4982646;28;20065;-94
2021/03/06 05:57:44;;;;;;;7.60;2.30;;;-3.30;92.20;;;;;;4977205;28;20084;-94
2021/03/06 06:00:11;;;;;;;8.48;3.10;;;-3.40;92.10;;;;;;4993788;28;20039;-95
2021/03/06 06:02:38;;;;;;;11.90;2.95;;;-3.30;92.20;;;;;;4978150;28;20066;-96
2021/03/06 06:05:04;;;;;;;15.07;5.03;;;-3.30;92.20;;;;;;4991512;28;20046;-96
2021/03/06 06:07:34;;;;;;;11.60;2.67;;;-3.30;92.20;;;;;;5004076;28;20041;-96
2021/03/06 06:10:00;;;;;;;7.97;2.58;;;-3.30;92.20;;;;;;5002969;28;20105;-95
2021/03/06 06:12:26;;;;;;;7.57;3.10;;;-3.30;92.20;;;;;;5000907;28;20053;-95
2021/03/06 06:14:51;;;;;;;6.85;2.72;;;-3.30;92.30;;;;;;4999727;28;20030;-95
2021/03/06 06:17:18;;;;;;;11.27;2.28;;;-3.30;92.30;;;;;;4992601;28;20100;-95
2021/03/06 06:19:44;;;;;;;5.82;2.67;;;-3.30;92.30;;;;;;4997174;28;20045;-94
2021/03/06 06:22:24;;;;;;;9.13;3.58;;;-3.20;92.30;;;;;;4992827;28;20034;-95
2021/03/06 06:24:52;;;;;;;10.23;2.70;;;-3.20;92.30;;;;;;4997037;28;20064;-94
2021/03/06 06:27:32;;;;;;;8.35;1.73;;;-3.30;92.30;;;;;;4997226;28;20026;-95
2021/03/06 06:29:59;;;;;;;13.57;2.13;;;-3.30;92.30;;;;;;4996420;28;20033;-94
2021/03/06 06:32:44;;;;;;;10.68;2.70;;;-3.30;92.30;;;;;;4997071;28;20080;-94
2021/03/06 06:35:15;;;;;;;11.45;2.58;;;-3.30;92.40;;;;;;4996812;28;20087;-95
2021/03/06 06:37:58;;;;;;;9.60;1.98;;;-3.30;92.40;;;;;;4993529;28;20021;-95
2021/03/06 06:40:25;;;;;;;10.27;2.30;;;-3.30;92.50;;;;;;4997238;28;20467;-94
2021/03/06 06:42:51;;;;;;;9.18;2.30;;;-3.20;92.50;;;;;;5021009;28;20092;-95
2021/03/06 06:45:17;;;;;;;11.45;2.78;;;-3.20;92.50;;;;;;5017646;28;20018;-94
2021/03/06 06:47:48;;;;;;;6.00;2.13;;;-3.20;92.50;;;;;;5003687;28;20030;-95
2021/03/06 06:50:26;;;;;;;8.73;2.40;;;-3.10;92.60;;;;;;4994974;28;20021;-95
2021/03/06 06:52:52;;;;;;;9.95;2.20;;;-3.10;92.50;;;;;;5004392;28;20034;-94
2021/03/06 06:55:17;;;;;;;9.73;2.65;;;-3.00;92.50;;;;;;4995890;28;20029;-95
2021/03/06 06:57:59;;;;;;;12.90;2.08;;;-2.90;92.50;;;;;;4996064;28;20018;-94
2021/03/06 07:00:28;;;;;;;6.17;2.57;;;-2.90;92.50;;;;;;4988479;28;20028;-94
2021/03/06 07:02:58;;;;;;;6.65;2.45;;;-2.90;92.50;;;;;;4995389;28;20093;-94
2021/03/06 07:05:29;;;;;;;6.90;2.83;;;-2.80;92.50;;;;;;4996161;28;20046;-95
2021/03/06 07:07:56;;;;;;;8.48;2.75;;;-2.70;92.60;;;;;;5007157;28;20030;-95
2021/03/06 07:10:23;;;;;;;6.95;2.53;;;-2.60;92.60;;;;;;5001219;28;20109;-94
2021/03/06 07:12:57;;;;;;;5.95;3.08;;;-2.50;92.60;;;;;;4997641;28;20034;-94
2021/03/06 07:15:24;;;;;;;5.93;2.90;;;-2.30;92.70;;;;;;4998986;28;20022;-95
2021/03/06 07:17:55;;;;;;;8.95;2.13;;;-2.20;92.70;;;;;;5002113;28;20037;-95
2021/03/06 07:20:24;;;;;;;9.52;3.30;;;-2.00;92.70;;;;;;4991225;28;20022;-95
2021/03/06 07:22:50;;;;;;;8.45;2.78;;;-1.90;92.70;;;;;;4991293;28;20041;-95
2021/03/06 07:25:16;;;;;;;10.38;3.17;;;-1.70;92.70;;;;;;4996847;28;20033;-94
2021/03/06 07:27:42;;;;;;;8.13;2.55;;;-1.50;92.60;;;;;;5007917;28;20037;-95
2021/03/06 07:30:09;;;;;;;8.07;2.60;;;-1.40;92.50;;;;;;4999480;28;20152;-92
2021/03/06 07:32:38;;;;;;;9.18;2.47;;;-1.30;92.40;;;;;;5000545;28;20055;-93
2021/03/06 07:35:05;;;;;;;11.27;2.70;;;-1.20;92.30;;;;;;5000202;28;20044;-93
2021/03/06 07:37:32;;;;;;;11.73;2.70;;;-1.10;92.30;;;;;;5001440;28;20026;-95
2021/03/06 07:39:59;;;;;;;11.27;3.00;;;-1.00;92.40;;;;;;5005851;28;20034;-95
2021/03/06 07:42:48;;;;;;;12.35;2.90;;;-0.90;92.40;;;;;;5021074;28;20034;-95
2021/03/06 07:45:22;;;;;;;5.97;2.40;;;-0.70;92.40;;;;;;4998661;28;20076;-94
2021/03/06 07:47:54;;;;;;;15.70;3.42;;;-0.60;92.40;;;;;;5016074;28;20037;-93
2021/03/06 07:50:27;;;;;;;9.18;2.63;;;-0.50;92.30;;;;;;5008175;28;20033;-95
2021/03/06 07:52:55;;;;;;;7.75;2.50;;;-0.40;92.30;;;;;;5011088;28;20034;-93
2021/03/06 07:55:22;;;;;;;9.40;2.45;;;-0.20;92.30;;;;;;5000768;28;20026;-95
2021/03/06 07:58:11;;;;;;;8.18;2.97;;;-0.10;92.40;;;;;;4983497;28;20509;-94
2021/03/06 08:00:41;;;;;;;11.40;2.95;;;0.10;92.30;;;;;;5000253;28;20026;-94
2021/03/06 08:03:33;;;;;;;11.18;3.28;;;0.30;92.20;;;;;;4996139;28;20034;-92
2021/03/06 08:06:05;;;;;;;8.40;2.30;;;0.40;92.10;;;;;;4993196;28;20039;-94
2021/03/06 08:08:34;;;;;;;6.00;2.80;;;0.60;92.10;;;;;;4973238;28;20139;-95
2021/03/06 08:11:10;;;;;;;12.85;3.00;;;0.70;92.00;;;;;;4970372;28;20398;-94
2021/03/06 08:13:37;;;;;;;9.13;2.88;;;0.70;92.00;;;;;;4973483;28;20478;-95
2021/03/06 08:16:23;;;;;;;10.07;2.60;;;0.80;91.90;;;;;;4991601;28;20034;-91
2021/03/06 08:18:53;;;;;;;13.77;3.65;;;1.00;91.90;;;;;;4966206;28;20023;-93
2021/03/06 08:21:42;;;;;;;14.02;2.70;;;1.00;91.90;;;;;;4991620;28;20037;-92
2021/03/06 08:24:14;;;;;;;11.75;3.17;;;1.10;91.80;;;;;;4967055;28;20034;-94
2021/03/06 08:26:40;;;;;;;24.38;5.35;;;1.30;91.90;;;;;;4988169;28;20394;-93
2021/03/06 08:29:24;;;;;;;15.60;4.75;;;1.40;92.20;;;;;;4984838;28;20023;-91
2021/03/06 08:32:12;;;;;;;49.30;18.00;;;1.60;92.20;;;;;;4987220;28;20045;-91
2021/03/06 08:34:38;;;;;;;17.48;5.13;;;1.90;92.30;;;;;;4985073;28;20126;-93
2021/03/06 08:39:48;;;;;;;10.32;3.60;;;2.20;92.00;;;;;;4989898;28;20038;-92
2021/03/06 08:42:16;;;;;;;8.90;2.83;;;2.30;91.90;;;;;;4967256;28;20038;-90
2021/03/06 08:44:42;;;;;;;11.70;3.35;;;2.50;91.90;;;;;;4996286;28;20023;-89
2021/03/06 08:47:08;;;;;;;11.68;3.00;;;2.60;91.80;;;;;;4977855;28;20093;-91
2021/03/06 08:49:35;;;;;;;11.38;3.22;;;2.70;91.60;;;;;;4995243;28;20132;-90
2021/03/06 08:52:01;;;;;;;14.18;4.07;;;2.80;91.40;;;;;;4977027;28;20450;-91
2021/03/06 08:54:26;;;;;;;8.07;3.17;;;2.90;91.30;;;;;;4977206;28;20093;-91
2021/03/06 08:56:52;;;;;;;22.25;4.28;;;3.00;91.30;;;;;;4978032;28;20034;-91
2021/03/06 08:59:36;;;;;;;11.48;3.20;;;3.10;91.20;;;;;;4977710;28;20481;-92
2021/03/06 09:02:15;;;;;;;5.80;2.65;;;3.20;91.10;;;;;;4977414;28;20038;-92
2021/03/06 09:04:40;;;;;;;13.00;2.47;;;3.20;90.90;;;;;;4979202;28;20038;-90
2021/03/06 09:07:25;;;;;;;10.82;3.30;;;3.30;90.80;;;;;;4993803;28;20080;-90
2021/03/06 09:09:51;;;;;;;9.77;2.50;;;3.50;90.70;;;;;;4992919;28;20089;-91
2021/03/06 09:12:17;;;;;;;25.83;2.15;;;3.50;90.50;;;;;;4990383;28;20042;-91
2021/03/06 09:14:42;;;;;;;10.38;2.25;;;3.60;90.50;;;;;;4996049;28;20084;-91
2021/03/06 09:17:11;;;;;;;7.82;1.73;;;3.70;90.40;;;;;;4994505;28;20387;-90
2021/03/06 09:19:37;;;;;;;9.45;1.90;;;3.80;90.10;;;;;;4994604;28;20085;-90
2021/03/06 09:22:06;;;;;;;8.50;1.40;;;3.90;89.40;;;;;;4988191;28;20035;-92
2021/03/06 09:24:49;;;;;;;11.90;1.60;;;4.00;89.20;;;;;;4991832;28;20023;-92
2021/03/06 09:27:15;;;;;;;;;;;4.10;88.90;;;;;;4984640;28;20479;-92
2021/03/06 09:29:41;;;;;;;10.00;1.15;;;4.20;87.60;;;;;;4994556;28;19964;-92
2021/03/06 09:32:08;;;;;;;7.28;1.05;;;4.30;86.70;;;;;;4994117;28;20022;-92
2021/03/06 09:34:34;;;;;;;6.47;1.45;;;4.30;87.10;;;;;;4984795;28;21582;-92
2021/03/06 09:37:14;;;;;;;8.90;0.88;;;4.40;87.30;;;;;;4992596;28;20026;-93
2021/03/06 09:39:39;;;;;;;5.75;0.80;;;4.60;86.30;;;;;;4994389;28;20030;-92
2021/03/06 09:42:05;;;;;;;7.38;0.70;;;4.70;86.50;;;;;;4993617;28;20041;-92
2021/03/06 09:44:31;;;;;;;3.83;0.50;;;4.80;85.70;;;;;;4994745;28;20031;-93
2021/03/06 09:46:59;;;;;;;6.93;0.60;;;4.90;82.90;;;;;;4994156;28;20142;-93
2021/03/06 09:49:35;;;;;;;5.63;0.52;;;5.00;81.70;;;;;;4992993;28;20097;-93
2021/03/06 09:52:02;;;;;;;5.78;0.60;;;5.00;81.00;;;;;;4993416;28;20037;-94
2021/03/06 09:54:35;;;;;;;7.78;0.40;;;5.00;79.50;;;;;;4994688;28;20030;-93
2021/03/06 09:57:02;;;;;;;8.98;0.60;;;5.10;80.60;;;;;;4993907;28;20041;-94
2021/03/06 09:59:34;;;;;;;3.88;0.60;;;5.20;80.80;;;;;;4992045;28;20029;-93
2021/03/06 10:02:08;;;;;;;3.75;0.50;;;5.30;80.70;;;;;;4993230;28;20034;-93
2021/03/06 10:04:34;;;;;;;5.13;0.45;;;5.40;78.60;;;;;;4996909;28;20072;-94
2021/03/06 10:07:00;;;;;;;5.15;0.73;;;5.50;77.90;;;;;;4997454;28;20079;-94
2021/03/06 10:09:32;;;;;;;9.52;0.70;;;5.50;78.20;;;;;;5009101;28;20040;-95
2021/03/06 10:12:04;;;;;;;2.88;0.63;;;5.60;77.60;;;;;;4994548;28;20018;-95
2021/03/06 10:14:30;;;;;;;9.10;1.17;;;5.70;76.60;;;;;;5012384;28;20030;-93
2021/03/06 10:16:59;;;;;;;7.45;0.70;;;5.70;77.30;;;;;;5015595;28;20034;-95
2021/03/06 10:19:43;;;;;;;5.03;1.15;;;5.70;77.10;;;;;;5000624;28;20022;-95
2021/03/06 10:22:10;;;;;;;4.63;0.30;;;5.70;76.70;;;;;;5010643;28;20045;-94
2021/03/06 10:24:59;;;;;;;5.13;0.40;;;5.90;77.00;;;;;;5016155;28;20482;-94
2021/03/06 10:27:39;;;;;;;4.90;0.40;;;6.10;74.90;;;;;;5009139;28;20077;-93
2021/03/06 10:30:12;;;;;;;1.70;0.22;;;6.20;74.30;;;;;;5019075;28;20026;-95
2021/03/06 10:32:58;;;;;;;4.57;0.30;;;6.20;73.20;;;;;;4991499;28;20058;-95
2021/03/06 10:35:49;;;;;;;5.97;0.30;;;6.40;73.10;;;;;;4995993;28;20482;-95
2021/03/06 10:38:25;;;;;;;5.68;0.30;;;6.50;72.10;;;;;;4999988;28;20026;-95
2021/03/06 10:40:52;;;;;;;8.68;0.35;;;6.50;71.30;;;;;;4998921;28;20014;-94
2021/03/06 10:43:24;;;;;;;6.45;0.30;;;6.50;71.50;;;;;;4998386;28;20038;-95
2021/03/06 10:45:49;;;;;;;3.08;0.30;;;6.40;71.00;;;;;;5004417;28;20038;-94
2021/03/06 10:48:27;;;;;;;2.88;0.30;;;6.50;70.90;;;;;;4998914;28;20037;-96
2021/03/06 10:50:54;;;;;;;5.10;0.32;;;6.70;70.70;;;;;;4992290;28;20026;-95
2021/03/06 10:53:21;;;;;;;3.60;0.22;;;6.90;70.20;;;;;;4995189;28;20112;-95
2021/03/06 10:55:48;;;;;;;2.13;0.30;;;7.00;66.00;;;;;;4997727;28;20033;-95
2021/03/06 10:58:15;;;;;;;5.68;0.30;;;7.00;66.50;;;;;;4986712;28;20053;-94
2021/03/06 11:00:42;;;;;;;3.63;0.30;;;7.10;66.40;;;;;;4997615;28;20041;-94
2021/03/06 11:03:10;;;;;;;4.25;0.50;;;7.10;66.50;;;;;;4999581;28;20029;-96
2021/03/06 11:05:37;;;;;;;2.22;0.22;;;7.30;66.10;;;;;;4987906;28;20046;-96
2021/03/06 11:08:17;;;;;;;3.55;0.60;;;7.40;64.90;;;;;;4994686;28;20391;-95
2021/03/06 11:10:46;;;;;;;3.10;0.30;;;7.50;64.00;;;;;;4996200;28;20084;-95
2021/03/06 11:13:12;;;;;;;4.63;0.30;;;7.70;64.50;;;;;;4994227;28;20022;-96
2021/03/06 11:15:46;;;;;;;3.25;0.43;;;7.80;61.10;;;;;;4995952;28;20030;-96
2021/03/06 11:18:13;;;;;;;8.05;0.43;;;7.90;61.90;;;;;;4979433;28;20026;-94
2021/03/06 11:20:39;;;;;;;5.70;0.40;;;8.00;63.30;;;;;;4988193;28;20117;-94
2021/03/06 11:23:05;;;;;;;5.63;0.38;;;8.20;60.70;;;;;;4997986;28;20030;-94
2021/03/06 11:25:32;;;;;;;4.68;0.43;;;8.30;60.90;;;;;;4996013;28;20026;-94
2021/03/06 11:28:01;;;;;;;2.97;0.20;;;8.30;61.10;;;;;;4996910;28;20034;-94
2021/03/06 11:30:34;;;;;;;4.55;0.40;;;8.50;60.90;;;;;;5015388;28;20018;-95
2021/03/06 11:33:02;;;;;;;2.65;0.20;;;8.60;61.00;;;;;;4998930;28;20034;-94
2021/03/06 11:35:28;;;;;;;3.80;0.38;;;8.70;60.30;;;;;;4998126;28;20042;-94
2021/03/06 11:37:54;;;;;;;3.30;0.40;;;8.70;60.20;;;;;;4995612;28;20482;-95
2021/03/06 11:40:23;;;;;;;3.25;0.40;;;8.70;57.20;;;;;;4986833;28;20505;-95
2021/03/06 11:42:49;;;;;;;4.60;0.30;;;8.40;56.00;;;;;;4995419;28;20046;-94
2021/03/06 11:45:17;;;;;;;5.68;0.30;;;8.10;56.80;;;;;;4990108;28;20025;-95
2021/03/06 11:47:45;;;;;;;2.30;0.30;;;7.80;56.60;;;;;;4996741;28;20097;-95
2021/03/06 11:50:13;;;;;;;3.03;0.30;;;7.50;58.00;;;;;;4999096;28;20026;-96
2021/03/06 11:52:39;;;;;;;2.28;0.20;;;7.40;58.00;;;;;;4981793;28;20413;-94
2021/03/06 11:55:07;;;;;;;5.50;0.40;;;7.30;57.80;;;;;;5002493;28;20029;-96
2021/03/06 11:57:33;;;;;;;4.07;0.30;;;7.10;57.70;;;;;;4994217;28;20034;-94
2021/03/06 11:59:59;;;;;;;1.55;0.43;;;7.00;58.80;;;;;;5000508;28;20079;-94
2021/03/06 12:02:24;;;;;;;5.07;0.60;;;6.90;59.40;;;;;;4998788;28;20046;-93
2021/03/06 12:04:50;;;;;;;3.33;0.30;;;7.00;60.00;;;;;;4998369;28;20041;-95
2021/03/06 12:07:15;;;;;;;1.63;0.20;;;7.10;60.10;;;;;;4998530;28;20021;-94
2021/03/06 12:09:42;;;;;;;2.17;0.20;;;7.20;59.70;;;;;;4984377;28;20490;-94
2021/03/06 12:12:08;;;;;;;1.10;0.20;;;7.30;60.00;;;;;;4986018;28;20104;-94
2021/03/06 12:14:34;;;;;;;2.58;0.30;;;7.50;58.60;;;;;;4999087;28;20018;-95
2021/03/06 12:17:00;;;;;;;3.35;0.20;;;7.30;57.00;;;;;;5002302;28;20040;-94
2021/03/06 12:19:25;;;;;;;6.00;0.30;;;7.10;57.30;;;;;;5002630;28;20058;-94
2021/03/06 12:21:51;;;;;;;2.92;0.30;;;7.10;57.90;;;;;;5002714;28;20481;-95
2021/03/06 12:24:17;;;;;;;2.25;0.30;;;7.10;58.10;;;;;;5003013;28;20113;-94
2021/03/06 12:26:42;;;;;;;1.52;0.20;;;7.10;58.90;;;;;;5001033;28;20029;-95
2021/03/06 12:29:08;;;;;;;2.72;0.20;;;7.10;59.20;;;;;;4999553;28;20037;-95
2021/03/06 12:31:33;;;;;;;2.42;0.40;;;7.10;59.00;;;;;;5002558;28;20045;-95
2021/03/06 12:33:59;;;;;;;1.77;0.20;;;7.10;59.60;;;;;;5002098;28;20026;-95
2021/03/06 12:36:25;;;;;;;1.83;0.30;;;7.10;59.30;;;;;;5002754;28;20024;-93
2021/03/06 12:38:51;;;;;;;3.50;0.38;;;7.10;58.40;;;;;;5002140;28;20037;-95
2021/03/06 12:41:16;;;;;;;2.72;0.30;;;7.00;58.90;;;;;;5002823;28;20080;-95
2021/03/06 12:43:42;;;;;;;1.48;0.20;;;6.90;58.90;;;;;;5001635;28;20052;-94
2021/03/06 12:46:07;;;;;;;2.38;0.25;;;6.90;58.60;;;;;;5012348;28;20084;-96
2021/03/06 12:48:33;;;;;;;3.22;0.30;;;6.90;59.20;;;;;;4998289;28;20037;-94
2021/03/06 12:50:59;;;;;;;3.65;0.30;;;7.00;59.30;;;;;;4986061;28;20470;-94
2021/03/06 12:53:24;;;;;;;2.83;0.28;;;7.00;59.00;;;;;;4992448;28;20117;-95
2021/03/06 12:55:50;;;;;;;2.63;0.20;;;7.10;59.20;;;;;;5002466;28;20121;-95
2021/03/06 12:58:15;;;;;;;2.55;0.20;;;7.20;59.30;;;;;;5001981;28;20057;-94
2021/03/06 13:00:41;;;;;;;2.15;0.30;;;7.30;59.00;;;;;;5000046;28;20132;-95
2021/03/06 13:03:06;;;;;;;2.25;0.30;;;7.30;58.40;;;;;;5001973;28;20038;-95